Wednesday, May 23, 2018, 7:46 AM CDT
Back to Local

KMDW, Chicago Midway Airport

Location: Chicago, IL, United States Lat: 41.783
Local Time: 7:46 AM CDT (12:46 GMT) Lon: -87.75
Time Zone: US/Central Elev: 620 ft

Show me the last for .
Show Decoded

2018-05-23 06:53 METAR KMDW 231153Z 00000KT 4SM BR FEW200 BKN250 14/12 A3018 RMK AO2 SLP220
                 T01390122 10139 20106 53018 =
2018-05-23 05:53 METAR KMDW 231053Z 00000KT 4SM BR FEW200 BKN250 11/10 A3016 RMK AO2 SLP213
                 T01110100 =
2018-05-23 04:53 METAR KMDW 230953Z 00000KT 4SM BR BKN250 12/10 A3014 RMK AO2 SLP205 T01170100 =
2018-05-23 03:53 METAR KMDW 230853Z 00000KT 5SM BR BKN250 12/11 A3013 RMK AO2 SLP201 T01220106
                 53010 =
2018-05-23 02:53 METAR KMDW 230753Z 00000KT 6SM BR SCT250 12/10 A3011 RMK AO2 SLP193 T01170100 =
2018-05-23 01:53 METAR KMDW 230653Z 21003KT 8SM FEW250 12/10 A3011 RMK AO2 SLP194 T01220100 =
2018-05-23 00:53 METAR KMDW 230553Z 00000KT 9SM CLR 12/11 A3010 RMK AO2 SLP191 T01220106 10156
                 20122 401940122 51003 =
2018-05-22 23:53 METAR KMDW 230453Z 14003KT 10SM CLR 12/10 A3010 RMK AO2 SLP191 T01220100 =
2018-05-22 22:53 METAR KMDW 230353Z 13003KT 10SM CLR 12/10 A3009 RMK AO2 SLP189 T01220100 =
2018-05-22 21:53 METAR KMDW 230253Z 12004KT 10SM CLR 13/11 A3009 RMK AO2 SLP189 T01280106 53016 =
2018-05-22 20:53 METAR KMDW 230153Z 10005KT 10SM FEW250 13/11 A3008 RMK AO2 SLP184 T01280106 =
2018-05-22 19:53 METAR KMDW 230053Z 06006KT 10SM FEW250 14/11 A3006 RMK AO2 SLP177 T01440106 =
2018-05-22 18:53 METAR KMDW 222353Z 11006KT 10SM FEW032 BKN250 16/12 A3004 RMK AO2 SLP172
                 T01560117 10183 20156 58001 =
2018-05-22 17:53 METAR KMDW 222253Z 07006KT 9SM FEW015 BKN032 16/12 A3005 RMK AO2 SLP173
                 T01610117 =
2018-05-22 16:53 METAR KMDW 222153Z 08007KT 9SM FEW032 OVC039 17/12 A3005 RMK AO2 SLP176
                 T01670122 =
2018-05-22 15:53 METAR KMDW 222053Z 10006KT 9SM FEW029 BKN042 17/12 A3005 RMK AO2 SLP173
                 T01720122 58004 =
2018-05-22 14:53 METAR KMDW 221953Z VRB05KT 7SM FEW021 OVC036 18/13 A3006 RMK AO2 SLP177
                 T01780133 =
2018-05-22 13:53 METAR KMDW 221853Z 03008KT 7SM BKN021 OVC033 17/13 A3006 RMK AO2 SLP179
                 T01670128 =
2018-05-22 12:53 METAR KMDW 221753Z 08009KT 8SM SCT021 OVC027 17/13 A3006 RMK AO2 SLP177
                 T01720128 10194 20139 50003 =
2018-05-22 12:21 METAR KMDW 221721Z 36005KT 8SM BKN015 OVC026 19/16 A3006 RMK AO2 T01890156 =
2018-05-22 11:53 METAR KMDW 221653Z 33006KT 5SM BR BKN013 OVC026 19/16 A3006 RMK AO2 SLP177
                 T01890156 =
2018-05-22 11:18 METAR KMDW 221618Z 00000KT 4SM BR BKN011 OVC018 17/15 A3006 RMK AO2 T01720150 =
2018-05-22 10:53 METAR KMDW 221553Z 00000KT 4SM BR BKN008 OVC016 17/14 A3005 RMK AO2 SLP176
                 T01670144 =
2018-05-22 09:53 METAR KMDW 221453Z 00000KT 4SM BR OVC006 15/14 A3005 RMK AO2 SLP174 T01500139
                 53017 =
2018-05-22 08:53 METAR KMDW 221353Z 04004KT 3SM BR OVC005 15/14 A3003 RMK AO2 SLP166 T01500139 =
2018-05-22 08:31 METAR KMDW 221331Z 07003KT 2SM BR OVC005 14/14 A3002 RMK AO2 T01440139 =
2018-05-22 07:53 METAR KMDW 221253Z 02004KT 1 1/2SM BR BKN003 OVC020 14/14 A3002 RMK AO2 SLP162
                 T01440139 =

Support USWX by starting your Amazon purchase here.